Time;durP1;ratioP1;P1;durP2;ratioP2;P2;SDS_P1;SDS_P2;PMS_P1;PMS_P2;Temp;Humidity;BMP_temperature;BMP_pressure;BME280_temperature;BME280_humidity;BME280_pressure;Samples;Min_cycle;Max_cycle;Signal;HPM_P1;HPM_P2
2022/07/08 00:00:42;;;;;;;8.70;1.95;;;15.10;99.90;;;;;;5061913;28;20101;-60
2022/07/08 00:03:08;;;;;;;11.07;2.40;;;15.20;99.90;;;;;;5064066;28;20206;-60
2022/07/08 00:05:34;;;;;;;10.00;2.67;;;15.20;99.90;;;;;;5063841;28;20119;-60
2022/07/08 00:08:00;;;;;;;11.60;2.45;;;15.20;99.90;;;;;;5064420;28;20576;-60
2022/07/08 00:10:26;;;;;;;11.63;2.15;;;15.10;99.90;;;;;;5045308;28;20041;-60
2022/07/08 00:12:51;;;;;;;12.75;2.50;;;15.00;99.90;;;;;;5061160;28;20028;-61
2022/07/08 00:15:17;;;;;;;12.27;2.00;;;15.00;99.90;;;;;;5044352;28;20036;-60
2022/07/08 00:17:43;;;;;;;9.27;1.83;;;15.00;99.90;;;;;;5063964;28;20055;-61
2022/07/08 00:20:09;;;;;;;8.07;2.53;;;15.00;99.90;;;;;;5063724;28;20040;-61
2022/07/08 00:22:36;;;;;;;7.93;1.80;;;15.00;99.90;;;;;;5066228;28;20067;-60
2022/07/08 00:25:03;;;;;;;10.18;1.80;;;14.90;99.90;;;;;;5080613;28;20217;-61
2022/07/08 00:27:29;;;;;;;9.00;1.67;;;14.90;99.90;;;;;;5048837;28;20354;-61
2022/07/08 00:29:54;;;;;;;7.93;1.77;;;14.90;99.90;;;;;;5067737;28;20098;-60
2022/07/08 00:32:20;;;;;;;10.18;2.38;;;14.90;99.90;;;;;;5065698;28;20048;-61
2022/07/08 00:34:46;;;;;;;10.73;1.88;;;14.90;99.90;;;;;;5066667;28;20048;-61
2022/07/08 00:37:12;;;;;;;9.27;1.70;;;14.90;99.90;;;;;;5066345;28;20040;-60
2022/07/08 00:39:37;;;;;;;12.18;2.00;;;14.90;99.90;;;;;;5065232;28;20029;-60
2022/07/08 00:42:05;;;;;;;7.53;2.10;;;14.90;99.90;;;;;;5064882;28;20049;-60
2022/07/08 00:44:31;;;;;;;10.32;1.90;;;14.90;99.90;;;;;;5066890;28;20117;-61
2022/07/08 00:46:56;;;;;;;9.25;2.00;;;14.80;99.90;;;;;;5063458;28;20086;-61
2022/07/08 00:49:22;;;;;;;5.93;1.80;;;14.80;99.90;;;;;;5066316;28;20047;-61
2022/07/08 00:51:49;;;;;;;9.98;2.58;;;14.80;99.90;;;;;;5065348;28;20503;-61
2022/07/08 00:54:18;;;;;;;9.63;2.70;;;14.80;99.90;;;;;;5068140;28;20043;-61
2022/07/08 00:56:44;;;;;;;10.25;2.10;;;14.80;99.90;;;;;;5046825;28;20365;-61
2022/07/08 00:59:10;;;;;;;7.43;1.73;;;14.70;99.90;;;;;;5067095;28;20029;-61
2022/07/08 01:01:36;;;;;;;11.05;1.80;;;14.70;99.90;;;;;;5066537;28;20133;-60
2022/07/08 01:04:03;;;;;;;11.70;2.10;;;14.70;99.90;;;;;;5051172;28;20384;-60
2022/07/08 01:06:29;;;;;;;10.38;1.92;;;14.70;99.90;;;;;;5050164;28;20114;-61
2022/07/08 01:08:55;;;;;;;9.82;1.88;;;14.70;99.90;;;;;;5067508;28;20121;-61
2022/07/08 01:11:21;;;;;;;9.13;2.05;;;14.70;99.90;;;;;;5066209;28;20055;-61
2022/07/08 01:13:47;;;;;;;9.15;2.10;;;14.70;99.90;;;;;;5065674;28;20719;-61
2022/07/08 01:16:14;;;;;;;9.57;2.00;;;14.60;99.90;;;;;;5063257;28;20115;-61
2022/07/08 01:18:41;;;;;;;12.27;2.20;;;14.60;99.90;;;;;;5043316;28;20592;-61
2022/07/08 01:21:07;;;;;;;13.63;2.20;;;14.60;99.90;;;;;;5062120;28;20055;-60
2022/07/08 01:23:33;;;;;;;11.57;2.00;;;14.60;99.90;;;;;;5045877;28;20036;-60
2022/07/08 01:26:03;;;;;;;10.00;1.88;;;14.50;99.90;;;;;;5062128;28;20036;-60
2022/07/08 01:28:29;;;;;;;9.35;2.00;;;14.50;99.90;;;;;;5062324;28;20048;-60
2022/07/08 01:30:54;;;;;;;12.77;2.67;;;14.40;99.90;;;;;;5047407;28;20044;-61
2022/07/08 01:33:20;;;;;;;5.47;1.83;;;14.40;99.90;;;;;;5064107;28;20048;-61
2022/07/08 01:35:46;;;;;;;9.10;2.40;;;14.30;99.90;;;;;;5044522;28;20137;-61
2022/07/08 01:38:12;;;;;;;6.68;1.73;;;14.30;99.90;;;;;;5063741;28;20044;-61
2022/07/08 01:40:37;;;;;;;12.27;3.28;;;14.30;99.90;;;;;;5063232;28;20105;-60
2022/07/08 01:43:06;;;;;;;7.55;1.88;;;14.20;99.90;;;;;;5062182;28;20101;-60
2022/07/08 01:45:32;;;;;;;9.50;1.90;;;14.10;99.90;;;;;;5043008;28;20040;-59
2022/07/08 01:47:57;;;;;;;7.50;2.30;;;14.10;99.90;;;;;;5062473;28;20139;-61
2022/07/08 01:50:23;;;;;;;6.88;1.90;;;14.10;99.90;;;;;;5046905;28;20055;-61
2022/07/08 01:52:49;;;;;;;6.07;1.70;;;14.10;99.90;;;;;;5064313;28;20284;-61
2022/07/08 01:55:15;;;;;;;5.70;1.60;;;14.10;99.90;;;;;;5043805;28;20132;-61
2022/07/08 01:57:41;;;;;;;10.73;2.40;;;14.10;99.90;;;;;;5047385;28;20372;-61
2022/07/08 02:00:07;;;;;;;17.52;2.40;;;14.00;99.90;;;;;;5061004;28;20029;-60
2022/07/08 02:02:33;;;;;;;8.25;2.70;;;14.00;99.90;;;;;;5048424;28;20273;-62
2022/07/08 02:04:58;;;;;;;8.88;1.70;;;14.00;99.90;;;;;;5064528;28;20033;-60
2022/07/08 02:07:24;;;;;;;11.13;2.38;;;14.00;99.90;;;;;;5064261;28;20032;-60
2022/07/08 02:09:50;;;;;;;11.00;2.15;;;14.00;99.90;;;;;;5065436;28;20040;-61
2022/07/08 02:12:18;;;;;;;11.25;2.20;;;14.00;99.90;;;;;;5010311;28;20053;-62
2022/07/08 02:14:49;;;;;;;11.85;2.10;;;14.00;99.90;;;;;;5045434;28;21588;-62
2022/07/08 02:17:16;;;;;;;8.98;2.20;;;13.90;99.90;;;;;;5063853;28;20051;-61
2022/07/08 02:19:42;;;;;;;7.97;2.08;;;13.90;99.90;;;;;;5065402;28;20037;-60
2022/07/08 02:22:08;;;;;;;5.63;1.70;;;13.90;99.90;;;;;;5066838;28;20044;-62
2022/07/08 02:24:35;;;;;;;11.77;2.35;;;13.90;99.90;;;;;;5066808;28;20040;-61
2022/07/08 02:27:01;;;;;;;9.25;2.50;;;13.90;99.90;;;;;;5065558;28;20662;-61
2022/07/08 02:29:27;;;;;;;7.90;1.85;;;13.90;99.90;;;;;;5082031;28;20054;-60
2022/07/08 02:31:53;;;;;;;8.18;2.88;;;13.90;99.90;;;;;;5046845;28;20048;-61
2022/07/08 02:34:19;;;;;;;9.43;2.17;;;13.90;99.90;;;;;;5048334;28;20064;-61
2022/07/08 02:36:45;;;;;;;8.68;2.10;;;13.90;99.90;;;;;;5065280;28;20055;-62
2022/07/08 02:39:12;;;;;;;10.18;2.20;;;13.80;99.90;;;;;;5049772;28;20036;-61
2022/07/08 02:41:41;;;;;;;10.70;2.47;;;13.80;99.90;;;;;;5064141;28;20044;-61
2022/07/08 02:44:07;;;;;;;7.07;2.35;;;13.80;99.90;;;;;;5066686;28;20039;-62
2022/07/08 02:46:34;;;;;;;8.93;2.15;;;13.70;99.90;;;;;;5058997;28;20032;-62
2022/07/08 02:49:00;;;;;;;6.30;1.73;;;13.70;99.90;;;;;;5059864;28;20091;-59
2022/07/08 02:51:26;;;;;;;8.95;2.20;;;13.60;99.90;;;;;;5065363;28;20503;-61
2022/07/08 02:53:52;;;;;;;9.13;2.40;;;13.50;99.90;;;;;;5047383;28;20210;-62
2022/07/08 02:56:17;;;;;;;10.07;2.42;;;13.50;99.90;;;;;;5061766;28;20044;-62
2022/07/08 02:58:43;;;;;;;5.10;1.95;;;13.40;99.90;;;;;;5063342;28;20491;-61
2022/07/08 03:01:09;;;;;;;7.70;2.25;;;13.40;99.90;;;;;;5065088;28;20119;-62
2022/07/08 03:03:34;;;;;;;8.80;2.20;;;13.40;99.90;;;;;;5058355;28;20079;-61
2022/07/08 03:06:00;;;;;;;8.38;2.28;;;13.40;99.90;;;;;;5040891;28;20083;-60
2022/07/08 03:08:26;;;;;;;7.65;2.25;;;13.40;99.90;;;;;;5058319;28;20071;-61
2022/07/08 03:10:52;;;;;;;8.25;2.15;;;13.40;99.90;;;;;;5058854;28;20403;-61
2022/07/08 03:13:18;;;;;;;12.23;2.53;;;13.40;99.90;;;;;;5040971;28;20131;-61
2022/07/08 03:15:44;;;;;;;11.75;2.30;;;13.40;99.90;;;;;;5062656;28;20534;-61
2022/07/08 03:18:09;;;;;;;11.00;2.63;;;13.40;99.90;;;;;;5062493;28;20119;-60
2022/07/08 03:20:35;;;;;;;6.68;1.95;;;13.40;99.90;;;;;;5042515;28;20044;-60
2022/07/08 03:23:01;;;;;;;9.43;2.30;;;13.30;99.90;;;;;;5062573;28;20098;-61
2022/07/08 03:25:27;;;;;;;11.35;2.33;;;13.30;99.90;;;;;;5064062;28;20114;-61
2022/07/08 03:27:53;;;;;;;6.43;2.60;;;13.30;99.90;;;;;;5062643;28;20067;-60
2022/07/08 03:30:18;;;;;;;10.25;2.30;;;13.30;99.90;;;;;;5077154;28;21045;-62
2022/07/08 03:32:44;;;;;;;8.60;2.42;;;13.30;99.90;;;;;;5045675;28;20033;-61
2022/07/08 03:35:10;;;;;;;8.15;2.45;;;13.20;99.90;;;;;;5041297;28;20326;-61
2022/07/08 03:37:41;;;;;;;7.43;2.15;;;13.30;99.90;;;;;;5060843;28;20041;-60
2022/07/08 03:42:52;;;;;;;11.00;2.67;;;13.20;99.90;;;;;;5058819;28;20048;-60
2022/07/08 03:45:18;;;;;;;10.35;2.90;;;13.20;99.90;;;;;;5028215;28;20051;-62
2022/07/08 03:47:44;;;;;;;16.85;2.95;;;13.20;99.90;;;;;;5059843;28;20176;-60
2022/07/08 03:50:10;;;;;;;10.77;2.95;;;13.20;99.90;;;;;;5060701;28;20036;-61
2022/07/08 03:52:36;;;;;;;11.05;2.80;;;13.20;99.90;;;;;;5063476;28;20040;-61
2022/07/08 03:55:02;;;;;;;11.38;2.97;;;13.20;99.90;;;;;;5050313;28;20055;-62
2022/07/08 03:57:27;;;;;;;8.48;2.17;;;13.30;99.90;;;;;;5065756;28;20040;-60
2022/07/08 03:59:53;;;;;;;9.43;2.42;;;13.30;99.90;;;;;;5066465;28;20045;-61
2022/07/08 04:02:19;;;;;;;10.27;2.42;;;13.30;99.90;;;;;;5065128;28;20407;-61
2022/07/08 04:04:44;;;;;;;10.23;2.53;;;13.30;99.90;;;;;;5050488;28;20040;-61
2022/07/08 04:07:10;;;;;;;12.50;2.83;;;13.40;99.90;;;;;;5067584;28;20127;-61
2022/07/08 04:09:36;;;;;;;11.00;2.95;;;13.40;99.90;;;;;;5052885;28;20043;-62
2022/07/08 04:12:02;;;;;;;8.50;2.40;;;13.40;99.90;;;;;;5049160;28;20048;-62
2022/07/08 04:14:27;;;;;;;10.57;2.42;;;13.50;99.90;;;;;;5065457;28;20060;-62
2022/07/08 04:16:53;;;;;;;13.27;2.72;;;13.50;99.90;;;;;;5068777;28;20067;-61
2022/07/08 04:19:19;;;;;;;7.10;2.13;;;13.60;99.90;;;;;;5046792;28;20040;-61
2022/07/08 04:21:44;;;;;;;9.60;2.83;;;13.60;99.90;;;;;;5046514;28;20395;-60
2022/07/08 04:24:10;;;;;;;14.05;2.97;;;13.70;99.90;;;;;;5069477;28;20044;-61
2022/07/08 04:26:36;;;;;;;14.52;2.88;;;13.70;99.90;;;;;;5066824;28;20028;-61
2022/07/08 04:29:02;;;;;;;11.43;3.03;;;13.70;99.90;;;;;;5063455;28;20032;-60
2022/07/08 04:31:28;;;;;;;8.90;2.42;;;13.80;99.90;;;;;;5048595;28;20408;-60
2022/07/08 04:33:54;;;;;;;14.65;3.40;;;13.80;99.90;;;;;;5046303;28;20036;-60
2022/07/08 04:36:24;;;;;;;20.27;3.75;;;13.80;99.90;;;;;;5064059;28;20106;-60
2022/07/08 04:38:49;;;;;;;12.05;2.95;;;13.90;99.90;;;;;;5063060;28;20569;-61
2022/07/08 04:41:15;;;;;;;9.40;2.40;;;14.00;99.90;;;;;;5067067;28;20044;-60
2022/07/08 04:43:43;;;;;;;11.82;2.88;;;14.00;99.90;;;;;;5044543;28;20040;-60
2022/07/08 04:46:10;;;;;;;7.05;2.35;;;14.10;99.90;;;;;;5061180;28;20036;-62
2022/07/08 04:48:36;;;;;;;9.15;2.30;;;14.20;99.90;;;;;;5065241;28;20052;-62
2022/07/08 04:51:01;;;;;;;6.53;2.63;;;14.20;99.90;;;;;;5068499;28;20458;-61
2022/07/08 04:53:27;;;;;;;5.82;2.20;;;14.30;99.90;;;;;;5066414;28;20048;-61
2022/07/08 04:55:53;;;;;;;12.57;3.03;;;14.40;99.90;;;;;;5049090;28;20581;-59
2022/07/08 04:58:19;;;;;;;8.70;2.20;;;14.40;99.90;;;;;;5065246;28;20047;-60
2022/07/08 05:00:44;;;;;;;12.25;2.63;;;14.50;99.90;;;;;;5066770;28;20040;-61
2022/07/08 05:03:10;;;;;;;9.32;2.63;;;14.60;99.90;;;;;;5063619;28;20772;-60
2022/07/08 05:05:36;;;;;;;8.10;2.60;;;14.60;99.90;;;;;;5067435;28;20040;-62
2022/07/08 05:08:02;;;;;;;5.72;2.67;;;14.70;99.90;;;;;;5050084;28;20623;-61
2022/07/08 05:10:28;;;;;;;9.23;2.60;;;14.70;99.90;;;;;;5080360;28;20080;-61
2022/07/08 05:12:55;;;;;;;8.55;2.10;;;14.80;99.90;;;;;;5065556;28;20033;-61
2022/07/08 05:15:21;;;;;;;15.38;2.80;;;14.80;99.90;;;;;;5060371;28;20465;-61
2022/07/08 05:17:47;;;;;;;10.30;2.80;;;14.80;99.90;;;;;;5063247;28;20040;-60
2022/07/08 05:20:13;;;;;;;10.68;2.55;;;14.80;99.90;;;;;;5065855;28;20474;-60
2022/07/08 05:22:39;;;;;;;8.68;2.33;;;14.90;99.90;;;;;;5063897;28;20124;-61
2022/07/08 05:25:07;;;;;;;10.90;2.50;;;14.90;99.90;;;;;;5065278;23;20513;-49
2022/07/08 05:27:33;;;;;;;6.70;2.55;;;15.00;99.90;;;;;;5072978;28;20489;-52
2022/07/08 05:29:59;;;;;;;9.95;2.72;;;15.00;99.90;;;;;;5078318;28;20500;-50
2022/07/08 05:32:25;;;;;;;6.65;2.17;;;15.00;99.90;;;;;;5050068;28;20040;-51
2022/07/08 05:34:51;;;;;;;8.90;2.47;;;15.10;99.90;;;;;;5048889;28;20091;-52
2022/07/08 05:37:17;;;;;;;11.32;2.95;;;15.10;99.90;;;;;;5072755;28;20036;-54
2022/07/08 05:39:46;;;;;;;17.02;3.05;;;15.20;99.90;;;;;;5078725;28;20043;-53
2022/07/08 05:42:12;;;;;;;10.52;2.58;;;15.20;99.90;;;;;;5078692;28;20402;-54
2022/07/08 05:44:38;;;;;;;9.23;2.55;;;15.30;99.90;;;;;;5079949;28;20115;-54
2022/07/08 05:47:05;;;;;;;12.77;2.42;;;15.40;99.90;;;;;;5079188;28;20052;-54
2022/07/08 05:49:31;;;;;;;11.40;2.60;;;15.50;99.90;;;;;;5081986;28;20132;-53
2022/07/08 05:51:57;;;;;;;11.27;2.22;;;15.60;99.90;;;;;;5081921;28;20076;-54
2022/07/08 05:54:23;;;;;;;15.13;3.42;;;15.70;99.90;;;;;;5077875;28;20116;-53
2022/07/08 05:56:49;;;;;;;16.27;3.35;;;15.80;99.90;;;;;;5082199;28;20494;-54
2022/07/08 05:59:14;;;;;;;13.90;2.95;;;15.90;99.90;;;;;;5073238;28;20491;-54
2022/07/08 06:01:40;;;;;;;10.93;2.42;;;16.00;99.90;;;;;;5092077;28;20040;-53
2022/07/08 06:04:06;;;;;;;11.60;2.75;;;16.00;99.90;;;;;;5082640;28;20036;-55
2022/07/08 06:06:32;;;;;;;10.45;2.40;;;16.10;99.90;;;;;;5080070;28;20737;-55
2022/07/08 06:08:57;;;;;;;10.57;2.53;;;16.20;99.90;;;;;;5070093;28;20511;-53
2022/07/08 06:11:23;;;;;;;10.20;2.65;;;16.30;99.90;;;;;;5079670;28;20047;-54
2022/07/08 06:13:49;;;;;;;11.75;3.13;;;16.30;99.90;;;;;;5083348;28;20163;-53
2022/07/08 06:16:15;;;;;;;10.25;3.13;;;16.40;99.90;;;;;;5085138;28;20036;-53
2022/07/08 06:18:41;;;;;;;14.40;3.13;;;16.40;99.90;;;;;;5063363;28;20102;-49
2022/07/08 06:21:07;;;;;;;12.50;3.03;;;16.50;99.90;;;;;;5080055;28;20039;-51
2022/07/08 06:23:34;;;;;;;9.82;2.63;;;16.50;99.90;;;;;;5063560;28;20033;-51
2022/07/08 06:26:00;;;;;;;15.13;2.60;;;16.60;99.90;;;;;;5075631;28;20089;-52
2022/07/08 06:28:26;;;;;;;12.35;2.67;;;16.80;99.90;;;;;;5071659;28;20474;-53
2022/07/08 06:30:52;;;;;;;11.88;2.78;;;17.00;99.90;;;;;;5074576;28;20198;-51
2022/07/08 06:33:17;;;;;;;10.45;2.70;;;17.20;99.90;;;;;;5076080;28;20085;-55
2022/07/08 06:35:43;;;;;;;12.25;2.75;;;17.30;99.90;;;;;;5073847;28;20032;-54
2022/07/08 06:38:10;;;;;;;10.75;2.72;;;17.40;99.90;;;;;;5080921;28;20277;-53
2022/07/08 06:40:35;;;;;;;14.18;4.45;;;17.40;99.90;;;;;;5079202;28;20105;-54
2022/07/08 06:43:01;;;;;;;8.52;2.80;;;17.50;99.90;;;;;;5069804;28;20051;-53
2022/07/08 06:45:31;;;;;;;9.48;2.38;;;17.60;99.90;;;;;;5073901;28;20051;-53
2022/07/08 06:48:00;;;;;;;10.77;2.95;;;17.70;99.90;;;;;;5056753;28;20128;-53
2022/07/08 06:50:26;;;;;;;8.20;2.40;;;17.80;99.90;;;;;;5091047;28;20048;-50
2022/07/08 06:52:52;;;;;;;11.32;2.45;;;18.00;99.90;;;;;;5073291;28;20163;-52
2022/07/08 06:55:18;;;;;;;10.93;2.35;;;18.10;99.90;;;;;;5075532;28;20555;-52
2022/07/08 06:57:44;;;;;;;14.05;3.13;;;18.00;99.90;;;;;;5078769;28;20587;-54
2022/07/08 07:00:10;;;;;;;10.45;2.65;;;18.00;99.90;;;;;;5077097;28;20394;-53
2022/07/08 07:02:36;;;;;;;9.55;2.15;;;18.10;99.90;;;;;;5075648;28;20362;-56
2022/07/08 07:05:02;;;;;;;9.45;3.05;;;18.30;99.90;;;;;;5046656;28;20040;-53
2022/07/08 07:07:28;;;;;;;13.23;2.85;;;18.50;99.90;;;;;;5071569;28;20040;-54
2022/07/08 07:09:54;;;;;;;8.85;2.00;;;18.60;99.90;;;;;;5076856;28;20047;-51
2022/07/08 07:12:20;;;;;;;11.90;2.75;;;18.50;99.90;;;;;;5066049;28;20308;-52
2022/07/08 07:14:46;;;;;;;8.30;2.33;;;18.50;99.90;;;;;;5071477;28;20032;-56
2022/07/08 07:17:12;;;;;;;9.50;2.47;;;18.30;99.90;;;;;;5074172;28;20040;-51
2022/07/08 07:19:37;;;;;;;6.47;2.38;;;18.20;99.90;;;;;;5073010;28;20540;-55
2022/07/08 07:22:04;;;;;;;10.55;2.90;;;18.30;99.90;;;;;;5069787;28;20082;-53
2022/07/08 07:24:29;;;;;;;9.15;1.80;;;18.30;99.90;;;;;;5077304;28;20070;-53
2022/07/08 07:26:55;;;;;;;12.15;2.47;;;18.30;99.90;;;;;;5079619;28;20040;-50
2022/07/08 07:29:21;;;;;;;9.05;2.38;;;18.30;99.90;;;;;;5061346;28;20318;-53
2022/07/08 07:31:47;;;;;;;10.05;3.10;;;18.30;99.90;;;;;;5085182;28;20078;-52
2022/07/08 07:34:13;;;;;;;7.82;2.47;;;18.40;99.90;;;;;;5060674;28;20040;-55
2022/07/08 07:36:38;;;;;;;6.72;2.15;;;18.50;99.90;;;;;;5086055;28;20043;-55
2022/07/08 07:39:04;;;;;;;11.65;2.97;;;18.50;99.90;;;;;;5080936;28;20416;-54
2022/07/08 07:41:30;;;;;;;12.93;2.38;;;18.50;99.90;;;;;;5061762;28;20066;-55
2022/07/08 07:43:56;;;;;;;9.32;2.45;;;18.60;99.90;;;;;;5075408;28;20043;-53
2022/07/08 07:46:21;;;;;;;6.40;2.22;;;18.50;99.90;;;;;;5061088;28;20043;-53
2022/07/08 07:48:47;;;;;;;8.43;2.75;;;18.60;99.90;;;;;;5070514;28;20048;-57
2022/07/08 07:51:13;;;;;;;8.45;2.30;;;18.60;99.90;;;;;;5080460;28;20040;-51
2022/07/08 07:53:38;;;;;;;7.50;2.25;;;18.60;99.90;;;;;;5084555;28;20104;-55
2022/07/08 07:56:04;;;;;;;10.73;2.33;;;18.60;99.90;;;;;;5035740;28;20109;-54
2022/07/08 07:58:30;;;;;;;7.38;2.05;;;18.50;99.90;;;;;;5091099;28;20056;-55
2022/07/08 08:00:56;;;;;;;8.70;2.10;;;18.60;99.90;;;;;;5090169;28;20517;-53
2022/07/08 08:03:22;;;;;;;8.38;2.45;;;18.60;99.90;;;;;;5065061;28;20036;-55
2022/07/08 08:05:48;;;;;;;9.55;2.25;;;18.70;99.90;;;;;;5079518;28;21689;-56
2022/07/08 08:08:13;;;;;;;11.07;2.30;;;18.70;99.90;;;;;;5084501;28;20060;-53
2022/07/08 08:10:39;;;;;;;8.98;2.67;;;18.80;99.90;;;;;;5098071;28;20052;-53
2022/07/08 08:13:05;;;;;;;6.07;2.55;;;18.90;99.90;;;;;;5083580;28;20556;-54
2022/07/08 08:15:32;;;;;;;9.02;2.50;;;18.90;99.90;;;;;;5074196;28;20050;-55
2022/07/08 08:17:59;;;;;;;8.07;2.10;;;19.00;99.90;;;;;;5065413;28;20094;-51
2022/07/08 08:20:26;;;;;;;6.05;1.75;;;19.00;99.90;;;;;;5089011;28;20046;-54
2022/07/08 08:22:53;;;;;;;7.18;1.77;;;19.10;99.90;;;;;;5069266;28;20266;-56
2022/07/08 08:25:20;;;;;;;6.50;2.13;;;19.20;99.90;;;;;;5083838;28;20052;-54
2022/07/08 08:27:46;;;;;;;7.78;1.75;;;19.20;99.90;;;;;;5071658;28;20477;-54
2022/07/08 08:30:12;;;;;;;6.05;2.03;;;19.20;99.90;;;;;;5085384;28;20050;-54
2022/07/08 08:32:38;;;;;;;9.75;2.28;;;19.20;99.90;;;;;;5088739;27;20059;-53
2022/07/08 08:35:05;;;;;;;9.10;2.10;;;19.30;99.90;;;;;;5073294;28;20119;-54
2022/07/08 08:37:31;;;;;;;5.22;1.83;;;19.30;99.90;;;;;;5085803;28;20488;-56
2022/07/08 08:40:06;;;;;;;7.70;2.17;;;19.30;99.90;;;;;;5084940;28;20047;-53
2022/07/08 08:42:32;;;;;;;7.88;1.60;;;19.40;99.90;;;;;;5086254;28;20044;-54
2022/07/08 08:44:59;;;;;;;8.80;2.72;;;19.40;99.90;;;;;;5063206;28;20036;-52
2022/07/08 08:47:33;;;;;;;7.82;1.95;;;19.40;99.90;;;;;;5080041;28;21614;-52
2022/07/08 08:52:49;;;;;;;7.53;2.33;;;19.50;99.90;;;;;;5083746;28;19916;-53
2022/07/08 08:55:30;;;;;;;8.88;1.90;;;19.70;99.90;;;;;;5085335;28;20051;-55
2022/07/08 08:57:58;;;;;;;4.18;1.70;;;19.80;99.90;;;;;;5065779;28;20043;-56
2022/07/08 09:00:27;;;;;;;7.18;2.10;;;19.70;99.90;;;;;;5081023;28;20055;-55
2022/07/08 09:02:54;;;;;;;8.23;2.00;;;19.70;99.90;;;;;;5051834;28;20547;-52
2022/07/08 09:05:21;;;;;;;7.07;1.85;;;19.80;99.90;;;;;;5070705;28;20089;-54
2022/07/08 09:07:48;;;;;;;7.75;1.92;;;19.80;99.90;;;;;;5081836;28;20270;-54
2022/07/08 09:10:15;;;;;;;4.82;2.03;;;20.00;99.90;;;;;;5069300;28;20576;-55
2022/07/08 09:13:02;;;;;;;5.60;2.38;;;20.20;99.90;;;;;;5085601;28;20583;-54
2022/07/08 09:15:50;;;;;;;6.70;1.95;;;20.40;99.90;;;;;;5049450;28;20039;-55
2022/07/08 09:18:18;;;;;;;6.95;1.80;;;20.50;99.90;;;;;;5083433;27;20498;-51
2022/07/08 09:20:45;;;;;;;7.35;1.65;;;20.50;99.90;;;;;;5080996;28;20047;-55
2022/07/08 09:23:30;;;;;;;6.38;1.85;;;20.40;99.90;;;;;;5076060;28;20040;-55
2022/07/08 09:25:57;;;;;;;7.13;2.30;;;20.50;99.90;;;;;;5081684;28;20040;-55
2022/07/08 09:28:39;;;;;;;6.57;1.90;;;20.50;99.90;;;;;;5086930;28;20113;-54
2022/07/08 09:31:13;;;;;;;7.20;1.75;;;20.10;99.90;;;;;;5098547;28;20129;-55
2022/07/08 09:33:39;;;;;;;6.35;1.70;;;20.20;99.90;;;;;;5067021;28;20039;-56
2022/07/08 09:36:06;;;;;;;7.18;2.15;;;20.30;99.90;;;;;;5080819;28;20060;-53
2022/07/08 09:38:35;;;;;;;8.95;2.25;;;20.50;99.90;;;;;;5085878;28;20592;-54
2022/07/08 09:41:03;;;;;;;7.20;1.85;;;20.50;99.90;;;;;;5084488;28;20043;-55
2022/07/08 09:43:29;;;;;;;8.52;2.05;;;20.70;99.90;;;;;;5084413;28;20115;-52
2022/07/08 09:46:03;;;;;;;7.03;2.33;;;20.50;99.90;;;;;;5066739;28;20494;-51
2022/07/08 09:48:29;;;;;;;7.43;2.17;;;20.50;99.90;;;;;;5082345;28;20047;-51
2022/07/08 09:50:55;;;;;;;5.28;2.15;;;20.50;99.90;;;;;;5078937;28;20040;-53
2022/07/08 09:53:28;;;;;;;7.85;2.20;;;20.40;99.90;;;;;;5077508;28;20124;-53
2022/07/08 09:55:58;;;;;;;10.23;1.75;;;20.30;99.90;;;;;;5057070;28;20045;-54
2022/07/08 09:58:26;;;;;;;6.80;2.55;;;20.50;99.90;;;;;;5078037;28;20178;-52
2022/07/08 10:00:55;;;;;;;6.45;2.20;;;20.60;99.90;;;;;;5071433;28;20052;-56
2022/07/08 10:03:22;;;;;;;6.38;1.70;;;20.70;99.90;;;;;;5078806;28;20096;-55
2022/07/08 10:05:48;;;;;;;8.48;2.53;;;20.60;99.90;;;;;;5095957;28;20036;-53
2022/07/08 10:08:15;;;;;;;10.13;2.50;;;20.90;99.90;;;;;;5076811;28;20060;-56
2022/07/08 10:10:43;;;;;;;7.18;1.75;;;21.10;99.90;;;;;;5077392;28;20546;-53
2022/07/08 10:13:09;;;;;;;7.55;2.17;;;21.30;99.90;;;;;;5078676;28;20072;-56
2022/07/08 10:15:37;;;;;;;7.95;1.67;;;21.40;99.90;;;;;;5064419;28;20327;-57
2022/07/08 10:18:16;;;;;;;6.00;1.83;;;21.60;99.90;;;;;;5086689;28;20063;-55
2022/07/08 10:20:46;;;;;;;7.40;2.28;;;21.60;99.90;;;;;;5072734;28;20047;-54
2022/07/08 10:23:27;;;;;;;4.10;1.90;;;21.70;99.90;;;;;;5070362;28;20294;-53
2022/07/08 10:25:56;;;;;;;10.88;2.72;;;21.80;99.90;;;;;;5076257;28;20502;-54
2022/07/08 10:28:41;;;;;;;7.90;2.65;;;21.50;99.90;;;;;;5075570;28;20048;-55
2022/07/08 10:31:24;;;;;;;10.75;2.83;;;21.30;99.90;;;;;;5075644;28;20199;-54
2022/07/08 10:33:51;;;;;;;9.00;2.70;;;21.00;99.90;;;;;;5076631;28;20047;-55
2022/07/08 10:36:21;;;;;;;11.82;2.45;;;21.00;99.90;;;;;;5077907;28;20032;-57
2022/07/08 10:38:48;;;;;;;8.75;2.83;;;21.10;99.90;;;;;;5073469;28;20040;-55
2022/07/08 10:41:18;;;;;;;9.63;2.70;;;21.20;99.90;;;;;;5068333;28;20037;-54
2022/07/08 10:43:57;;;;;;;11.18;3.60;;;21.10;99.90;;;;;;5068949;28;20164;-54
2022/07/08 10:46:27;;;;;;;10.38;2.97;;;20.90;99.90;;;;;;5074738;28;20052;-56
2022/07/08 10:49:02;;;;;;;8.07;3.40;;;20.90;99.90;;;;;;5064627;28;20059;-56
2022/07/08 10:51:28;;;;;;;7.95;2.97;;;21.00;99.90;;;;;;5073989;28;20040;-56
2022/07/08 10:53:58;;;;;;;9.43;2.55;;;21.00;99.90;;;;;;5078550;28;20504;-55
2022/07/08 10:56:56;;;;;;;9.38;3.05;;;20.90;99.90;;;;;;5066005;28;20119;-58
2022/07/08 10:59:22;;;;;;;7.88;3.25;;;21.00;99.90;;;;;;5061858;28;20078;-55
2022/07/08 11:01:56;;;;;;;9.98;3.05;;;21.00;99.90;;;;;;5066486;28;20375;-56
2022/07/08 11:04:39;;;;;;;8.32;2.90;;;21.00;99.90;;;;;;5067056;28;20036;-57
2022/07/08 11:07:17;;;;;;;10.98;3.47;;;21.10;99.90;;;;;;5068061;28;20118;-54
2022/07/08 11:09:53;;;;;;;11.02;3.10;;;21.20;99.90;;;;;;5067566;28;20478;-58
2022/07/08 11:12:24;;;;;;;7.70;2.85;;;21.10;99.90;;;;;;5050671;28;20122;-55
2022/07/08 11:14:55;;;;;;;10.75;2.80;;;21.10;99.90;;;;;;5071688;28;20040;-56
2022/07/08 11:17:26;;;;;;;8.90;2.90;;;21.10;99.90;;;;;;5074039;28;20089;-56
2022/07/08 11:19:53;;;;;;;12.73;3.05;;;21.10;99.90;;;;;;5073223;28;20544;-54
2022/07/08 11:22:21;;;;;;;14.50;3.17;;;21.30;99.90;;;;;;5093020;28;20044;-58
2022/07/08 11:24:48;;;;;;;12.23;3.47;;;21.20;99.90;;;;;;5037900;23;20041;-58
2022/07/08 11:27:14;;;;;;;9.68;3.15;;;21.40;99.90;;;;;;5015343;28;20114;-60
2022/07/08 11:29:51;;;;;;;9.35;3.55;;;21.50;99.90;;;;;;5015967;28;20122;-58
2022/07/08 11:32:19;;;;;;;9.10;2.75;;;21.50;99.90;;;;;;5023413;28;20416;-58
2022/07/08 11:34:48;;;;;;;8.80;2.80;;;21.40;99.90;;;;;;5031106;28;20127;-59
2022/07/08 11:37:14;;;;;;;10.98;3.35;;;21.50;99.90;;;;;;5027000;28;20060;-59
2022/07/08 11:39:41;;;;;;;11.35;4.75;;;21.70;99.90;;;;;;5043814;28;20086;-60
2022/07/08 11:42:08;;;;;;;7.72;3.08;;;21.60;99.90;;;;;;5018722;28;20042;-61
2022/07/08 11:44:34;;;;;;;9.07;3.63;;;21.60;99.90;;;;;;5029325;28;20041;-60
2022/07/08 11:46:59;;;;;;;11.70;3.50;;;21.50;99.90;;;;;;5030845;28;20036;-60
2022/07/08 11:49:25;;;;;;;9.52;3.10;;;21.60;99.90;;;;;;5032432;28;20326;-59
2022/07/08 11:51:55;;;;;;;11.82;3.58;;;21.50;99.90;;;;;;5025577;28;20041;-59
2022/07/08 11:54:23;;;;;;;11.88;3.65;;;21.20;99.90;;;;;;5028687;28;20079;-56
2022/07/08 11:56:52;;;;;;;10.32;3.78;;;21.40;99.90;;;;;;5036170;28;20111;-60
2022/07/08 11:59:26;;;;;;;12.10;3.70;;;21.60;99.90;;;;;;5031194;28;20399;-59
2022/07/08 12:01:56;;;;;;;11.75;4.05;;;21.90;99.90;;;;;;5019940;28;20033;-59
2022/07/08 12:04:23;;;;;;;13.93;3.97;;;22.00;99.90;;;;;;5033525;28;20124;-59
2022/07/08 12:06:59;;;;;;;11.75;3.55;;;22.00;99.90;;;;;;5034399;28;20041;-59
2022/07/08 12:09:26;;;;;;;10.23;3.58;;;22.10;99.90;;;;;;5040617;28;20173;-57
2022/07/08 12:11:54;;;;;;;11.93;4.18;;;22.00;99.90;;;;;;5028997;28;20033;-58
2022/07/08 12:14:21;;;;;;;10.00;3.97;;;22.00;99.90;;;;;;5036264;28;20045;-59
2022/07/08 12:16:52;;;;;;;8.73;3.45;;;22.10;99.90;;;;;;5034032;28;20069;-57
2022/07/08 12:19:34;;;;;;;10.50;3.72;;;22.20;99.90;;;;;;5033415;28;20036;-59
2022/07/08 12:22:03;;;;;;;12.40;3.20;;;22.40;99.90;;;;;;5033103;28;20069;-60
2022/07/08 12:24:37;;;;;;;11.80;2.92;;;22.80;99.90;;;;;;5037720;28;20040;-59
2022/07/08 12:27:17;;;;;;;;;;;23.10;99.90;;;;;;5035256;28;20048;-59
2022/07/08 12:29:43;;;;;;;12.18;3.40;;;23.00;99.90;;;;;;5027621;28;19940;-58
2022/07/08 12:32:10;;;;;;;10.80;3.40;;;22.80;99.90;;;;;;5038367;28;20495;-55
2022/07/08 12:34:36;;;;;;;9.40;2.88;;;22.70;99.90;;;;;;5031415;28;20033;-59
2022/07/08 12:37:16;;;;;;;15.05;3.75;;;22.60;99.90;;;;;;5043785;28;20048;-58
2022/07/08 12:39:42;;;;;;;8.80;3.25;;;22.50;99.90;;;;;;5039858;28;20041;-58
2022/07/08 12:42:08;;;;;;;10.93;3.33;;;22.30;99.90;;;;;;5039528;28;20037;-58
2022/07/08 12:44:41;;;;;;;9.00;2.90;;;22.30;99.90;;;;;;5031136;28;20041;-58
2022/07/08 12:47:12;;;;;;;13.50;3.22;;;22.40;99.90;;;;;;5037416;28;20189;-61
2022/07/08 12:49:40;;;;;;;12.98;3.38;;;22.50;99.90;;;;;;5031688;28;20041;-59